Time;durP1;ratioP1;P1;durP2;ratioP2;P2;SDS_P1;SDS_P2;PMS_P1;PMS_P2;Temp;Humidity;BMP_temperature;BMP_pressure;BME280_temperature;BME280_humidity;BME280_pressure;Samples;Min_cycle;Max_cycle;Signal;HPM_P1;HPM_P2
2023/07/05 00:00:50;;;;;;;9.13;5.90;;;12.00;99.90;;;;;;4991218;28;20428;-52
2023/07/05 00:03:16;;;;;;;6.83;6.00;;;12.00;99.90;;;;;;4991080;28;20540;-52
2023/07/05 00:05:41;;;;;;;12.50;5.93;;;12.00;99.90;;;;;;4991273;28;20306;-52
2023/07/05 00:08:07;;;;;;;14.47;6.57;;;12.00;99.90;;;;;;4991067;28;20185;-52
2023/07/05 00:10:33;;;;;;;9.27;5.97;;;12.00;99.90;;;;;;4991208;28;20648;-51
2023/07/05 00:13:01;;;;;;;8.53;6.07;;;12.00;99.90;;;;;;4991334;28;20185;-52
2023/07/05 00:15:28;;;;;;;7.40;6.40;;;12.00;99.90;;;;;;4991490;28;20283;-51
2023/07/05 00:17:54;;;;;;;9.47;6.53;;;12.00;99.90;;;;;;4990723;28;20480;-53
2023/07/05 00:20:20;;;;;;;11.20;6.30;;;12.00;99.90;;;;;;4992144;28;20428;-52
2023/07/05 00:22:46;;;;;;;9.00;6.10;;;12.10;99.90;;;;;;5007591;28;20946;-52
2023/07/05 00:25:12;;;;;;;7.00;6.30;;;12.10;99.90;;;;;;5027164;28;20791;-53
2023/07/05 00:27:37;;;;;;;8.80;6.17;;;12.10;99.90;;;;;;5062187;28;20186;-52
2023/07/05 00:30:03;;;;;;;9.80;6.77;;;12.20;99.90;;;;;;5002286;28;20243;-52
2023/07/05 00:32:29;;;;;;;10.70;6.77;;;12.20;99.90;;;;;;5014137;28;20667;-52
2023/07/05 00:34:54;;;;;;;13.57;6.77;;;12.30;99.90;;;;;;4993449;28;20185;-54
2023/07/05 00:37:20;;;;;;;9.20;6.30;;;12.30;99.90;;;;;;4994062;28;20301;-53
2023/07/05 00:39:45;;;;;;;10.77;6.90;;;12.30;99.90;;;;;;5049323;28;20190;-53
2023/07/05 00:42:11;;;;;;;10.60;6.63;;;12.30;99.90;;;;;;5049736;28;20179;-53
2023/07/05 00:44:37;;;;;;;13.67;6.50;;;12.30;99.90;;;;;;5096933;28;20173;-53
2023/07/05 00:47:17;;;;;;;9.07;5.90;;;12.40;99.90;;;;;;5090712;28;20189;-54
2023/07/05 00:49:42;;;;;;;8.90;6.03;;;12.40;99.90;;;;;;5087618;28;20200;-53
2023/07/05 00:52:13;;;;;;;9.80;6.60;;;12.40;99.90;;;;;;5036340;28;20521;-53
2023/07/05 00:54:44;;;;;;;11.90;6.57;;;12.50;99.90;;;;;;5001683;28;20234;-53
2023/07/05 00:57:20;;;;;;;9.80;6.50;;;12.50;99.90;;;;;;4996490;28;20484;-53
2023/07/05 00:59:54;;;;;;;13.20;7.47;;;12.50;99.90;;;;;;5013124;28;20449;-52
2023/07/05 01:02:21;;;;;;;8.00;6.50;;;12.50;99.90;;;;;;5013104;28;20884;-54
2023/07/05 01:04:46;;;;;;;11.33;6.63;;;12.50;99.90;;;;;;4997153;28;20435;-53
2023/07/05 01:07:12;;;;;;;10.77;7.00;;;12.50;99.90;;;;;;4993636;28;20421;-53
2023/07/05 01:09:38;;;;;;;10.73;7.17;;;12.60;99.90;;;;;;4993375;28;20190;-53
2023/07/05 01:12:45;;;;;;;10.93;7.47;;;12.60;99.90;;;;;;4993445;28;20199;-53
2023/07/05 01:15:22;;;;;;;11.30;6.90;;;12.60;99.90;;;;;;4993885;28;20204;-53
2023/07/05 01:17:53;;;;;;;16.50;7.37;;;12.60;99.90;;;;;;4993906;28;20460;-54
2023/07/05 01:20:37;;;;;;;10.97;7.57;;;12.70;99.90;;;;;;4993473;28;20475;-53
2023/07/05 01:23:18;;;;;;;10.20;7.10;;;12.70;99.90;;;;;;4993150;28;20436;-53
2023/07/05 01:26:00;;;;;;;12.20;7.83;;;12.70;99.90;;;;;;4993268;28;20429;-53
2023/07/05 01:28:45;;;;;;;13.30;7.57;;;12.70;99.90;;;;;;4993104;28;20429;-53
2023/07/05 01:31:50;;;;;;;19.70;8.40;;;12.70;99.90;;;;;;4993621;28;20407;-53
2023/07/05 01:34:29;;;;;;;10.50;7.90;;;12.70;99.90;;;;;;4993599;28;20409;-53
2023/07/05 01:36:56;;;;;;;12.93;8.60;;;12.80;99.90;;;;;;4993156;28;20449;-53
2023/07/05 01:39:21;;;;;;;12.20;7.97;;;12.70;99.90;;;;;;4992143;28;20445;-54
2023/07/05 01:41:48;;;;;;;13.13;8.13;;;12.70;99.90;;;;;;4993532;28;20424;-54
2023/07/05 01:44:15;;;;;;;16.20;8.60;;;12.80;99.90;;;;;;4993001;28;20244;-54
2023/07/05 01:47:16;;;;;;;11.17;8.67;;;12.80;99.90;;;;;;4993116;28;20894;-54
2023/07/05 01:49:53;;;;;;;16.03;7.83;;;12.80;99.90;;;;;;4992968;28;20435;-55
2023/07/05 01:52:33;;;;;;;14.00;8.70;;;12.80;99.90;;;;;;5014089;28;20435;-54
2023/07/05 01:55:08;;;;;;;12.20;8.83;;;12.90;99.90;;;;;;5095212;28;20488;-55
2023/07/05 01:58:03;;;;;;;15.70;8.37;;;12.90;99.90;;;;;;5050631;28;20480;-54
2023/07/05 02:00:30;;;;;;;13.13;9.17;;;12.90;99.90;;;;;;4996560;28;20457;-53
2023/07/05 02:03:05;;;;;;;13.90;9.63;;;12.90;99.90;;;;;;5002793;28;21534;-55
2023/07/05 02:05:31;;;;;;;18.83;9.30;;;12.90;99.90;;;;;;5072957;28;20456;-54
2023/07/05 02:07:59;;;;;;;21.63;9.20;;;12.90;99.90;;;;;;5091028;28;20444;-54
2023/07/05 02:10:25;;;;;;;18.17;9.60;;;13.00;99.90;;;;;;5083898;28;20433;-53
2023/07/05 02:12:52;;;;;;;17.77;10.03;;;13.00;99.90;;;;;;5001651;28;20441;-54
2023/07/05 02:15:18;;;;;;;18.33;10.30;;;13.00;99.90;;;;;;4992569;28;20530;-54
2023/07/05 02:17:44;;;;;;;26.93;10.40;;;13.00;99.90;;;;;;5021500;28;20492;-55
2023/07/05 02:20:10;;;;;;;14.97;10.00;;;13.00;99.90;;;;;;5060378;28;20428;-55
2023/07/05 02:22:36;;;;;;;17.97;9.50;;;13.00;99.90;;;;;;5092458;28;20185;-54
2023/07/05 02:25:02;;;;;;;18.30;10.30;;;13.10;99.90;;;;;;4995736;28;20454;-55
2023/07/05 02:27:28;;;;;;;16.83;11.63;;;13.10;99.90;;;;;;4992244;28;20186;-53
2023/07/05 02:29:55;;;;;;;13.67;10.80;;;13.10;99.90;;;;;;4992614;28;20417;-54
2023/07/05 02:32:21;;;;;;;14.07;9.50;;;13.20;99.90;;;;;;4992731;28;20774;-54
2023/07/05 02:34:46;;;;;;;15.70;10.10;;;13.20;99.90;;;;;;4992404;28;20429;-55
2023/07/05 02:37:14;;;;;;;15.57;9.73;;;13.30;99.90;;;;;;4992110;28;20823;-54
2023/07/05 02:39:40;;;;;;;16.27;9.83;;;13.40;99.90;;;;;;4992410;28;20189;-53
2023/07/05 02:42:06;;;;;;;18.63;10.10;;;13.40;99.90;;;;;;4992391;28;20421;-54
2023/07/05 02:44:32;;;;;;;19.93;9.60;;;13.40;99.90;;;;;;4992451;28;20426;-57
2023/07/05 02:46:58;;;;;;;13.80;9.40;;;13.40;99.90;;;;;;4992517;28;20521;-54
2023/07/05 02:49:23;;;;;;;15.73;8.80;;;13.50;99.90;;;;;;4991748;28;20235;-54
2023/07/05 02:51:49;;;;;;;15.43;10.20;;;13.50;99.90;;;;;;5023004;28;20241;-55
2023/07/05 02:54:15;;;;;;;12.40;8.30;;;13.50;99.90;;;;;;5091641;28;20226;-55
2023/07/05 02:56:40;;;;;;;18.30;9.27;;;13.60;99.90;;;;;;5091916;28;20569;-55
2023/07/05 02:59:06;;;;;;;14.93;9.23;;;13.60;99.90;;;;;;5089135;28;20280;-55
2023/07/05 03:01:31;;;;;;;11.77;9.40;;;13.70;99.90;;;;;;5091607;28;20193;-55
2023/07/05 03:03:57;;;;;;;20.27;7.80;;;13.70;99.90;;;;;;5091691;28;20266;-55
2023/07/05 03:06:22;;;;;;;9.10;7.70;;;13.80;99.90;;;;;;5091743;28;20696;-55
2023/07/05 03:08:48;;;;;;;17.70;8.00;;;13.80;99.90;;;;;;5067868;28;20188;-55
2023/07/05 03:11:14;;;;;;;11.90;8.00;;;13.80;99.90;;;;;;5091660;28;20181;-56
2023/07/05 03:13:40;;;;;;;16.07;8.27;;;13.90;99.90;;;;;;5085852;28;20200;-55
2023/07/05 03:16:05;;;;;;;15.73;8.77;;;13.90;99.90;;;;;;5091376;28;20186;-55
2023/07/05 03:18:32;;;;;;;17.30;7.97;;;14.00;99.90;;;;;;5063115;28;20219;-55
2023/07/05 03:20:57;;;;;;;17.20;8.10;;;14.00;99.90;;;;;;5047257;28;20195;-56
2023/07/05 03:23:23;;;;;;;17.10;7.80;;;14.00;99.90;;;;;;5088204;28;20827;-55
2023/07/05 03:26:02;;;;;;;15.33;7.93;;;14.00;99.90;;;;;;5024939;28;20193;-56
2023/07/05 03:28:30;;;;;;;12.70;7.97;;;14.10;99.90;;;;;;5091688;28;20232;-56
2023/07/05 03:31:01;;;;;;;9.20;7.03;;;14.10;99.90;;;;;;5059136;28;20553;-55
2023/07/05 03:33:27;;;;;;;15.80;8.30;;;14.10;99.90;;;;;;5075187;28;20447;-56
2023/07/05 03:36:01;;;;;;;16.13;7.40;;;14.00;99.90;;;;;;5091360;28;20925;-56
2023/07/05 03:38:28;;;;;;;11.40;8.53;;;14.10;99.90;;;;;;5088079;28;20529;-56
2023/07/05 03:41:14;;;;;;;18.93;8.20;;;14.10;99.90;;;;;;5076540;28;20834;-56
2023/07/05 03:43:43;;;;;;;12.10;7.40;;;14.10;99.90;;;;;;5079126;28;20433;-56
2023/07/05 03:46:11;;;;;;;14.00;8.50;;;14.20;99.90;;;;;;5091126;28;20429;-56
2023/07/05 03:48:39;;;;;;;11.50;8.17;;;14.20;99.90;;;;;;5048560;28;20437;-56
2023/07/05 03:51:06;;;;;;;14.13;8.57;;;14.20;99.90;;;;;;5007433;28;20441;-55
2023/07/05 03:53:35;;;;;;;13.50;8.17;;;14.30;99.90;;;;;;5063450;28;20509;-55
2023/07/05 03:56:05;;;;;;;14.20;8.07;;;14.30;99.90;;;;;;5088610;28;20446;-57
2023/07/05 03:58:31;;;;;;;13.13;8.47;;;14.30;99.90;;;;;;5065250;28;20532;-55
2023/07/05 04:01:07;;;;;;;12.97;7.80;;;14.20;99.90;;;;;;5067908;28;20796;-56
2023/07/05 04:03:33;;;;;;;15.80;8.70;;;14.20;99.90;;;;;;4993728;28;20439;-55
2023/07/05 04:06:01;;;;;;;15.67;9.00;;;14.20;99.90;;;;;;5014441;28;20435;-55
2023/07/05 04:08:27;;;;;;;14.80;9.47;;;14.20;99.90;;;;;;4998304;28;20425;-55
2023/07/05 04:10:52;;;;;;;14.70;8.60;;;14.10;99.90;;;;;;4994760;28;20424;-56
2023/07/05 04:13:18;;;;;;;21.30;9.33;;;14.10;99.90;;;;;;4994856;28;20626;-56
2023/07/05 04:15:43;;;;;;;23.37;9.00;;;14.10;99.90;;;;;;4994221;28;20186;-56
2023/07/05 04:18:09;;;;;;;19.13;8.60;;;14.00;99.90;;;;;;4993783;28;20346;-56
2023/07/05 04:20:36;;;;;;;18.70;10.07;;;14.00;99.90;;;;;;4994506;28;20190;-55
2023/07/05 04:23:03;;;;;;;13.60;9.40;;;14.10;99.90;;;;;;4993936;28;20584;-56
2023/07/05 04:25:28;;;;;;;18.70;10.17;;;14.10;99.90;;;;;;4994405;28;20417;-57
2023/07/05 04:27:54;;;;;;;15.30;9.30;;;14.10;99.90;;;;;;4994524;28;20459;-55
2023/07/05 04:30:19;;;;;;;15.70;9.00;;;14.00;99.90;;;;;;4995376;28;20199;-55
2023/07/05 04:32:45;;;;;;;23.27;10.00;;;14.00;99.90;;;;;;4993989;28;20233;-56
2023/07/05 04:35:11;;;;;;;21.83;10.60;;;14.00;99.90;;;;;;4994167;28;20209;-55
2023/07/05 04:37:36;;;;;;;16.50;9.33;;;14.00;99.90;;;;;;4994209;28;20599;-55
2023/07/05 04:40:03;;;;;;;13.63;9.70;;;14.00;99.90;;;;;;4993905;28;20186;-55
2023/07/05 04:42:29;;;;;;;18.40;10.13;;;14.00;99.90;;;;;;4994095;28;20270;-54
2023/07/05 04:44:54;;;;;;;18.13;9.73;;;14.00;99.90;;;;;;4993458;28;20517;-55
2023/07/05 04:47:20;;;;;;;18.40;10.20;;;14.00;99.90;;;;;;4994044;28;20267;-55
2023/07/05 04:49:46;;;;;;;18.63;10.27;;;14.00;99.90;;;;;;4994024;28;20669;-56
2023/07/05 04:52:12;;;;;;;20.03;10.10;;;14.10;99.90;;;;;;4993880;28;20199;-55
2023/07/05 04:54:38;;;;;;;19.93;10.23;;;14.00;99.90;;;;;;4993800;28;20958;-56
2023/07/05 04:57:04;;;;;;;14.90;10.17;;;14.00;99.90;;;;;;4993746;28;20207;-55
2023/07/05 04:59:30;;;;;;;14.93;11.53;;;14.00;99.90;;;;;;4993831;28;20186;-55
2023/07/05 05:01:56;;;;;;;20.50;11.40;;;14.00;99.90;;;;;;5041327;28;20455;-55
2023/07/05 05:04:21;;;;;;;16.83;10.50;;;14.00;99.90;;;;;;5076098;28;20320;-55
2023/07/05 05:06:47;;;;;;;17.90;11.43;;;14.10;99.90;;;;;;5050714;28;20638;-56
2023/07/05 05:09:13;;;;;;;18.97;10.57;;;14.20;99.90;;;;;;4993587;28;20189;-55
2023/07/05 05:11:38;;;;;;;19.93;11.67;;;14.20;99.90;;;;;;4993520;28;20854;-56
2023/07/05 05:14:04;;;;;;;17.70;10.53;;;14.20;99.90;;;;;;5043284;28;20187;-54
2023/07/05 05:16:30;;;;;;;16.77;10.60;;;14.10;99.90;;;;;;4992322;28;20206;-53
2023/07/05 05:18:55;;;;;;;17.63;10.83;;;14.20;99.90;;;;;;5026115;28;20187;-55
2023/07/05 05:21:21;;;;;;;16.30;10.60;;;14.20;99.90;;;;;;5030782;28;20231;-54
2023/07/05 05:23:46;;;;;;;19.30;11.80;;;14.20;99.90;;;;;;4992665;28;20228;-54
2023/07/05 05:26:12;;;;;;;18.03;11.67;;;14.10;99.90;;;;;;4992095;28;20241;-54
2023/07/05 05:28:38;;;;;;;21.20;11.13;;;14.10;99.90;;;;;;5031649;28;20186;-54
2023/07/05 05:31:07;;;;;;;18.13;11.60;;;14.10;99.90;;;;;;5096045;28;20213;-54
2023/07/05 05:33:33;;;;;;;17.27;11.23;;;14.00;99.90;;;;;;5060404;28;20570;-54
2023/07/05 05:35:59;;;;;;;17.10;10.73;;;14.00;99.90;;;;;;4996738;28;20947;-55
2023/07/05 05:38:25;;;;;;;17.83;11.50;;;14.00;99.90;;;;;;5010340;28;20468;-54
2023/07/05 05:40:51;;;;;;;18.33;12.03;;;13.90;99.90;;;;;;5012931;28;20187;-55
2023/07/05 05:43:18;;;;;;;15.37;11.60;;;14.00;99.90;;;;;;5005705;28;20570;-54
2023/07/05 05:45:43;;;;;;;20.33;12.27;;;14.10;99.90;;;;;;4993266;28;20794;-54
2023/07/05 05:48:09;;;;;;;15.33;11.73;;;14.20;99.90;;;;;;4993277;28;20513;-55
2023/07/05 05:50:35;;;;;;;18.00;11.70;;;14.30;99.90;;;;;;4993416;28;20184;-55
2023/07/05 05:53:02;;;;;;;21.20;12.10;;;14.30;99.90;;;;;;5002258;28;20437;-54
2023/07/05 05:55:28;;;;;;;16.60;12.40;;;14.30;99.90;;;;;;5004503;28;20237;-54
2023/07/05 05:57:53;;;;;;;24.03;12.03;;;14.30;99.90;;;;;;4994098;28;20477;-55
2023/07/05 06:00:19;;;;;;;22.77;12.60;;;14.20;99.90;;;;;;4999965;28;20437;-54
2023/07/05 06:02:45;;;;;;;18.93;12.87;;;14.20;99.90;;;;;;5066721;28;20174;-54
2023/07/05 06:05:11;;;;;;;21.97;12.37;;;14.10;99.90;;;;;;5007429;28;20244;-54
2023/07/05 06:07:37;;;;;;;20.70;12.17;;;14.20;99.90;;;;;;5010519;28;20223;-55
2023/07/05 06:10:03;;;;;;;17.77;12.27;;;14.20;99.90;;;;;;5006889;28;20445;-54
2023/07/05 06:12:28;;;;;;;20.10;11.80;;;14.20;99.90;;;;;;4994055;28;20423;-54
2023/07/05 06:14:54;;;;;;;24.77;13.10;;;14.30;99.90;;;;;;5042863;28;20191;-55
2023/07/05 06:17:20;;;;;;;20.30;12.73;;;14.30;99.90;;;;;;5072507;28;20230;-55
2023/07/05 06:19:46;;;;;;;20.33;11.83;;;14.20;99.90;;;;;;4993018;28;20226;-55
2023/07/05 06:22:11;;;;;;;21.43;12.90;;;14.30;99.90;;;;;;5002443;28;20429;-53
2023/07/05 06:24:37;;;;;;;20.23;12.83;;;14.40;99.90;;;;;;5011382;28;20659;-52
2023/07/05 06:27:03;;;;;;;25.90;14.63;;;14.30;99.90;;;;;;4994994;28;20195;-54
2023/07/05 06:29:28;;;;;;;19.83;12.90;;;14.30;99.90;;;;;;4992327;28;20278;-54
2023/07/05 06:31:54;;;;;;;17.20;12.17;;;14.30;99.90;;;;;;4992685;28;20800;-53
2023/07/05 06:34:20;;;;;;;20.23;13.00;;;14.40;99.90;;;;;;4991120;28;20196;-55
2023/07/05 06:36:45;;;;;;;18.93;12.90;;;14.40;99.90;;;;;;4992443;28;20290;-54
2023/07/05 06:39:11;;;;;;;27.03;13.97;;;14.40;99.90;;;;;;4992372;28;20646;-55
2023/07/05 06:41:36;;;;;;;21.60;12.90;;;14.50;99.90;;;;;;4992339;28;20186;-54
2023/07/05 06:44:02;;;;;;;17.07;13.00;;;14.50;99.90;;;;;;4994459;28;20192;-53
2023/07/05 06:46:27;;;;;;;21.17;13.27;;;14.50;99.90;;;;;;4991937;28;20281;-55
2023/07/05 06:48:53;;;;;;;25.60;13.00;;;14.50;99.90;;;;;;4992119;28;20179;-54
2023/07/05 06:51:19;;;;;;;19.90;12.77;;;14.40;99.90;;;;;;4991686;28;20527;-54
2023/07/05 06:53:44;;;;;;;25.40;13.90;;;14.30;99.90;;;;;;4983868;28;20234;-52
2023/07/05 06:56:10;;;;;;;23.43;12.40;;;14.30;99.90;;;;;;4982806;28;20194;-53
2023/07/05 06:58:36;;;;;;;22.07;12.77;;;14.40;99.90;;;;;;5045441;28;20249;-54
2023/07/05 07:01:02;;;;;;;21.50;12.60;;;14.30;99.90;;;;;;5094318;28;20179;-52
2023/07/05 07:03:29;;;;;;;21.90;13.30;;;14.30;99.90;;;;;;5094630;28;20410;-52
2023/07/05 07:05:56;;;;;;;17.47;12.70;;;14.30;99.90;;;;;;5093979;28;20927;-53
2023/07/05 07:08:23;;;;;;;19.90;12.90;;;14.30;99.90;;;;;;5094519;28;20458;-53
2023/07/05 07:10:49;;;;;;;18.97;12.77;;;14.30;99.90;;;;;;5094354;28;20955;-54
2023/07/05 07:13:15;;;;;;;26.83;14.50;;;14.30;99.90;;;;;;5091407;28;20437;-52
2023/07/05 07:15:41;;;;;;;19.10;12.70;;;14.20;99.90;;;;;;5035765;28;20747;-53
2023/07/05 07:18:08;;;;;;;27.00;12.97;;;14.20;99.90;;;;;;5027263;28;20223;-55
2023/07/05 07:20:33;;;;;;;18.80;13.30;;;14.20;99.90;;;;;;5024525;28;21250;-54
2023/07/05 07:22:59;;;;;;;21.73;13.57;;;14.30;99.90;;;;;;5094354;28;20428;-55
2023/07/05 07:25:25;;;;;;;22.90;12.33;;;14.30;99.90;;;;;;5094005;28;20206;-53
2023/07/05 07:27:51;;;;;;;18.70;12.53;;;14.30;99.90;;;;;;5081853;28;20708;-55
2023/07/05 07:30:17;;;;;;;22.70;12.77;;;14.40;99.90;;;;;;5094268;28;20452;-54
2023/07/05 07:32:47;;;;;;;23.17;13.47;;;14.50;99.90;;;;;;5094357;28;20187;-54
2023/07/05 07:35:14;;;;;;;21.23;13.60;;;14.60;99.90;;;;;;5093965;28;20420;-55
2023/07/05 07:37:39;;;;;;;23.93;14.07;;;14.70;99.90;;;;;;5089245;28;20720;-53
2023/07/05 07:40:06;;;;;;;17.60;13.03;;;14.70;99.90;;;;;;5098132;28;20917;-53
2023/07/05 07:42:32;;;;;;;20.47;12.53;;;14.70;99.90;;;;;;5095600;28;20237;-53
2023/07/05 07:44:58;;;;;;;18.73;13.80;;;14.80;99.90;;;;;;5036862;28;20434;-53
2023/07/05 07:47:24;;;;;;;17.00;12.63;;;14.80;99.90;;;;;;4995244;28;20564;-53
2023/07/05 07:49:50;;;;;;;21.00;14.07;;;14.90;99.90;;;;;;4995410;28;20572;-53
2023/07/05 07:52:17;;;;;;;22.33;13.33;;;14.90;99.90;;;;;;5054848;28;20186;-52
2023/07/05 07:54:43;;;;;;;23.83;14.30;;;15.00;99.90;;;;;;5097707;28;20468;-55
2023/07/05 07:57:09;;;;;;;24.70;16.93;;;15.10;99.90;;;;;;5097741;28;20940;-55
2023/07/05 07:59:40;;;;;;;29.60;18.20;;;15.20;99.90;;;;;;5093184;28;20539;-51
2023/07/05 08:02:10;;;;;;;104.72;65.97;;;15.40;99.90;;;;;;5096267;28;20416;-55
2023/07/05 08:04:43;;;;;;;27.87;13.87;;;15.60;99.90;;;;;;5097402;28;20188;-54
2023/07/05 08:07:08;;;;;;;18.97;13.43;;;15.80;99.90;;;;;;5086345;28;20410;-53
2023/07/05 08:09:34;;;;;;;19.07;12.60;;;15.90;99.90;;;;;;4999329;28;20885;-53
2023/07/05 08:11:59;;;;;;;17.00;11.63;;;16.10;99.90;;;;;;5013883;28;20200;-56
2023/07/05 08:14:25;;;;;;;19.50;12.57;;;16.10;99.90;;;;;;5002446;28;20266;-54
2023/07/05 08:16:51;;;;;;;17.20;12.17;;;16.00;99.90;;;;;;4994395;28;20600;-56
2023/07/05 08:19:16;;;;;;;16.53;11.77;;;15.90;99.90;;;;;;4994287;28;20190;-56
2023/07/05 08:21:44;;;;;;;16.00;11.43;;;15.90;99.90;;;;;;4994481;28;20184;-57
2023/07/05 08:24:10;;;;;;;17.03;11.97;;;15.90;99.90;;;;;;5083286;28;20204;-55
2023/07/05 08:26:36;;;;;;;15.63;11.87;;;16.00;99.90;;;;;;5090888;28;20464;-54
2023/07/05 08:29:02;;;;;;;15.20;11.40;;;16.00;99.90;;;;;;5097324;28;20436;-55
2023/07/05 08:31:29;;;;;;;18.03;11.67;;;16.20;99.90;;;;;;5056209;28;20554;-54
2023/07/05 08:33:55;;;;;;;15.10;11.43;;;16.60;99.90;;;;;;4993805;28;20423;-53
2023/07/05 08:36:37;;;;;;;14.53;10.60;;;16.90;99.90;;;;;;4994021;28;20827;-55
2023/07/05 08:39:05;;;;;;;12.97;10.17;;;17.30;99.90;;;;;;5012237;28;20195;-53
2023/07/05 08:41:41;;;;;;;12.23;9.53;;;17.60;99.90;;;;;;5092954;28;20491;-56
2023/07/05 08:44:25;;;;;;;14.73;10.70;;;17.70;99.90;;;;;;5063064;28;20427;-56
2023/07/05 08:47:02;;;;;;;11.00;9.20;;;17.90;99.90;;;;;;4986778;28;20438;-59
2023/07/05 08:49:48;;;;;;;13.00;9.30;;;18.30;99.90;;;;;;4994512;28;20420;-57
2023/07/05 08:52:23;;;;;;;9.93;7.93;;;18.40;36.40;;;;;;4993013;28;20458;-57
2023/07/05 08:54:57;;;;;;;11.17;8.37;;;18.60;99.90;;;;;;4993953;28;20532;-56
2023/07/05 08:57:28;;;;;;;13.10;8.27;;;19.00;99.90;;;;;;4993946;28;20465;-55
2023/07/05 08:59:57;;;;;;;10.20;7.63;;;19.20;1.00;;;;;;5067911;28;20453;-57
2023/07/05 09:02:23;;;;;;;10.20;7.00;;;19.30;99.90;;;;;;5096893;28;20823;-57
2023/07/05 09:04:53;;;;;;;9.00;6.87;;;19.50;99.90;;;;;;5096976;28;20465;-57
2023/07/05 09:07:37;;;;;;;8.23;6.60;;;19.50;1.00;;;;;;5097033;28;20913;-57
2023/07/05 09:10:05;;;;;;;10.50;7.27;;;19.60;1.00;;;;;;5096758;28;20417;-56
2023/07/05 09:12:51;;;;;;;8.33;6.47;;;19.60;1.00;;;;;;5096844;28;20738;-58
2023/07/05 09:15:24;;;;;;;7.47;6.33;;;19.60;99.90;;;;;;4998619;28;20494;-58
2023/07/05 09:17:54;;;;;;;8.07;6.40;;;19.30;99.90;;;;;;5013417;28;20655;-57
2023/07/05 09:20:31;;;;;;;4.67;3.50;;;19.10;99.90;;;;;;5085309;28;20862;-58
2023/07/05 09:23:00;;;;;;;4.23;3.20;;;19.30;1.00;;;;;;4993287;28;20440;-58
2023/07/05 09:25:30;;;;;;;6.43;3.83;;;19.50;1.00;;;;;;4993796;28;20788;-59
2023/07/05 09:28:07;;;;;;;6.90;3.77;;;19.80;1.00;;;;;;4993717;28;20431;-58
2023/07/05 09:30:33;;;;;;;6.83;3.20;;;19.40;1.00;;;;;;4993023;28;20982;-58
2023/07/05 09:33:10;;;;;;;5.50;3.60;;;18.70;1.00;;;;;;4993391;28;20486;-62
2023/07/05 09:35:36;;;;;;;3.77;3.33;;;18.80;1.00;;;;;;4993686;28;20419;-60
2023/07/05 09:38:11;;;;;;;12.30;3.50;;;19.60;1.00;;;;;;4993142;28;20473;-59
2023/07/05 09:40:45;;;;;;;6.13;3.60;;;20.40;1.00;;;;;;4993233;28;20424;-59
2023/07/05 09:43:26;;;;;;;6.37;3.50;;;21.10;1.00;;;;;;4992837;28;20941;-59
2023/07/05 09:45:52;;;;;;;3.77;3.23;;;21.20;1.00;;;;;;4993718;28;20427;-59
2023/07/05 09:48:18;;;;;;;7.30;3.60;;;21.40;1.00;;;;;;4993406;28;20421;-59
2023/07/05 09:50:50;;;;;;;4.13;3.27;;;21.10;1.00;;;;;;4993397;28;20542;-59
2023/07/05 09:53:22;;;;;;;13.30;3.63;;;21.50;1.00;;;;;;4992938;28;20405;-59
2023/07/05 09:56:04;;;;;;;3.80;3.30;;;21.70;1.00;;;;;;4993374;28;20409;-59
2023/07/05 09:58:30;;;;;;;7.83;4.10;;;21.90;1.00;;;;;;4992934;28;20475;-58
2023/07/05 10:00:58;;;;;;;6.83;3.70;;;21.90;1.00;;;;;;4992285;28;20517;-60
2023/07/05 10:03:24;;;;;;;9.50;3.50;;;21.60;1.00;;;;;;4993184;28;20417;-59
2023/07/05 10:05:54;;;;;;;8.00;3.40;;;21.00;1.00;;;;;;4993325;28;20966;-59
2023/07/05 10:08:22;;;;;;;3.23;2.93;;;21.20;1.00;;;;;;4992833;28;20444;-59
2023/07/05 10:10:48;;;;;;;5.40;3.17;;;22.00;1.00;;;;;;4992625;28;20449;-58
2023/07/05 10:13:19;;;;;;;4.70;3.30;;;22.60;1.00;;;;;;5012556;28;20428;-60
2023/07/05 10:15:47;;;;;;;9.23;2.97;;;22.80;1.00;;;;;;5003462;28;20801;-59
2023/07/05 10:18:31;;;;;;;3.63;2.70;;;22.50;1.00;;;;;;4992544;28;20474;-59
2023/07/05 10:21:05;;;;;;;4.13;3.10;;;23.00;1.00;;;;;;4992739;28;20445;-59
2023/07/05 10:23:34;;;;;;;8.03;3.60;;;23.10;1.00;;;;;;4992776;28;20436;-56
2023/07/05 10:26:04;;;;;;;8.40;3.30;;;23.40;1.00;;;;;;4992684;28;20422;-58
2023/07/05 10:28:32;;;;;;;8.80;2.97;;;23.80;1.00;;;;;;4992722;28;20518;-57
2023/07/05 10:31:01;;;;;;;6.50;3.10;;;24.10;1.00;;;;;;4991958;28;20443;-57
2023/07/05 10:33:30;;;;;;;8.07;3.03;;;24.00;1.00;;;;;;5001442;28;20445;-58
2023/07/05 10:35:58;;;;;;;3.53;2.90;;;23.80;1.00;;;;;;5012016;28;20826;-57
2023/07/05 10:38:46;;;;;;;4.77;3.43;;;23.10;1.00;;;;;;5011661;28;20471;-58
2023/07/05 10:41:20;;;;;;;5.83;3.60;;;22.10;1.00;;;;;;5065325;28;20742;-58
2023/07/05 10:43:55;;;;;;;6.30;3.10;;;21.00;1.00;;;;;;5047642;28;20522;-57
2023/07/05 10:46:24;;;;;;;6.03;2.83;;;20.80;1.00;;;;;;4991356;28;20944;-58
2023/07/05 10:48:52;;;;;;;5.00;2.73;;;21.10;1.00;;;;;;5009371;28;20456;-58
2023/07/05 10:51:23;;;;;;;4.43;3.00;;;21.10;1.00;;;;;;5035115;28;20447;-59
2023/07/05 10:54:31;;;;;;;3.43;2.70;;;21.00;1.00;;;;;;5094424;28;20500;-58
2023/07/05 10:57:00;;;;;;;3.57;2.77;;;20.40;1.00;;;;;;4990560;28;20875;-60
2023/07/05 10:59:32;;;;;;;6.23;3.03;;;19.70;1.00;;;;;;5046477;28;20447;-59
2023/07/05 11:02:06;;;;;;;6.63;3.10;;;19.50;1.00;;;;;;5020844;28;20483;-59
2023/07/05 11:04:34;;;;;;;9.10;2.70;;;19.30;1.00;;;;;;4997878;28;20890;-58
2023/07/05 11:07:10;;;;;;;4.00;2.77;;;19.20;1.00;;;;;;4990685;28;20452;-59
2023/07/05 11:09:38;;;;;;;5.97;2.97;;;19.10;1.00;;;;;;4991382;28;20426;-56
2023/07/05 11:12:13;;;;;;;11.07;2.27;;;19.10;1.00;;;;;;4988543;28;20455;-58
2023/07/05 11:14:39;;;;;;;6.93;2.37;;;19.40;1.00;;;;;;4989283;28;20843;-58
2023/07/05 11:17:11;;;;;;;11.73;3.33;;;19.40;1.00;;;;;;5045886;28;20569;-56
2023/07/05 11:19:39;;;;;;;5.37;2.83;;;19.70;1.00;;;;;;5092800;28;20178;-57
2023/07/05 11:22:05;;;;;;;6.77;2.13;;;19.90;1.00;;;;;;5010602;28;20429;-57
2023/07/05 11:24:30;;;;;;;6.10;2.60;;;20.20;1.00;;;;;;4990641;28;20971;-56
2023/07/05 11:26:56;;;;;;;4.10;2.90;;;20.60;1.00;;;;;;4991378;28;20194;-58
2023/07/05 11:29:27;;;;;;;8.40;2.60;;;21.10;1.00;;;;;;5044445;28;20196;-58
2023/07/05 11:31:53;;;;;;;8.37;2.03;;;21.70;1.00;;;;;;5093743;28;20174;-59
2023/07/05 11:34:21;;;;;;;6.90;2.53;;;22.10;1.00;;;;;;5093676;28;20778;-58
2023/07/05 11:36:52;;;;;;;5.93;1.90;;;22.20;1.00;;;;;;5093993;28;20180;-59
2023/07/05 11:39:37;;;;;;;3.70;2.10;;;22.80;1.00;;;;;;5093921;28;20841;-58
2023/07/05 11:42:12;;;;;;;3.57;2.13;;;23.60;99.90;;;;;;5085108;28;20437;-58
2023/07/05 11:44:39;;;;;;;6.30;2.30;;;22.80;99.90;;;;;;5091205;28;20448;-63
2023/07/05 11:47:06;;;;;;;3.90;2.13;;;21.40;99.90;;;;;;5094045;28;20444;-59
2023/07/05 11:49:41;;;;;;;4.87;2.30;;;20.50;99.90;;;;;;5093867;28;20957;-58
2023/07/05 11:52:26;;;;;;;4.33;1.83;;;19.80;99.90;;;;;;5017168;28;20431;-58
2023/07/05 11:55:21;;;;;;;5.67;2.03;;;19.40;1.00;;;;;;4991257;28;20502;-59
2023/07/05 11:57:59;;;;;;;3.43;2.57;;;19.20;1.00;;;;;;4996035;28;20514;-61
2023/07/05 12:00:51;;;;;;;8.10;2.30;;;19.20;1.00;;;;;;5093807;28;20430;-62
2023/07/05 12:03:23;;;;;;;3.00;2.00;;;19.30;1.00;;;;;;5093760;28;20495;-61
2023/07/05 12:06:06;;;;;;;11.60;2.07;;;19.20;1.00;;;;;;5094098;28;20427;-61
2023/07/05 12:08:43;;;;;;;2.47;1.80;;;19.40;1.00;;;;;;5087626;28;20485;-60
2023/07/05 12:11:12;;;;;;;3.27;2.03;;;20.30;1.00;;;;;;5093905;28;20419;-59
2023/07/05 12:13:37;;;;;;;5.03;1.90;;;20.40;1.00;;;;;;5093914;28;20446;-60
2023/07/05 12:16:06;;;;;;;6.23;2.00;;;20.30;1.00;;;;;;5016957;28;20933;-58
2023/07/05 12:18:33;;;;;;;2.77;1.73;;;19.90;1.00;;;;;;4989298;28;20684;-57
2023/07/05 12:21:04;;;;;;;4.57;1.97;;;19.40;1.00;;;;;;4991118;28;20468;-60
2023/07/05 12:23:32;;;;;;;12.83;2.20;;;19.10;1.00;;;;;;4985043;28;20440;-57
2023/07/05 12:26:02;;;;;;;9.83;2.30;;;18.90;1.00;;;;;;4974806;28;20428;-59
2023/07/05 12:28:30;;;;;;;4.80;2.27;;;18.80;1.00;;;;;;4990026;28;20434;-59
2023/07/05 12:31:08;;;;;;;5.13;1.80;;;18.80;1.00;;;;;;4980254;28;20439;-58
2023/07/05 12:33:36;;;;;;;3.70;2.30;;;19.00;1.00;;;;;;5055714;28;20992;-58
2023/07/05 12:36:14;;;;;;;4.30;2.37;;;19.30;1.00;;;;;;5097228;28;20511;-58
2023/07/05 12:38:42;;;;;;;6.80;2.17;;;19.40;1.00;;;;;;5097293;28;20463;-62
2023/07/05 12:41:23;;;;;;;5.00;2.30;;;19.60;1.00;;;;;;5019896;28;20420;-60
2023/07/05 12:43:59;;;;;;;4.30;2.23;;;19.90;1.00;;;;;;5001022;28;20426;-59
2023/07/05 12:46:27;;;;;;;7.17;2.20;;;19.80;1.00;;;;;;4997183;28;20448;-60
2023/07/05 12:48:53;;;;;;;7.43;1.90;;;19.30;1.00;;;;;;5093979;27;20447;-59